Time;durP1;ratioP1;P1;durP2;ratioP2;P2;SDS_P1;SDS_P2;PMS_P1;PMS_P2;Temp;Humidity;BMP_temperature;BMP_pressure;BME280_temperature;BME280_humidity;BME280_pressure;Samples;Min_cycle;Max_cycle;Signal;HPM_P1;HPM_P2
2022/04/26 03:37:05;;;;;;;5.28;4.03;;;;;;;4.82;98.29;99909.25;5010448;28;20665;-76
2022/04/26 03:39:34;;;;;;;5.70;4.30;;;;;;;4.85;98.09;99916.06;5015077;28;20045;-76
2022/04/26 03:42:02;;;;;;;5.75;4.03;;;;;;;4.92;98.69;99918.59;5051150;28;20692;-75
2022/04/26 03:44:29;;;;;;;7.30;3.78;;;;;;;4.94;98.38;99917.25;5032430;28;20045;-76
2022/04/26 03:46:54;;;;;;;5.82;3.50;;;;;;;4.97;98.35;99924.88;5031831;28;20121;-76
2022/04/26 03:49:24;;;;;;;7.35;3.80;;;;;;;5.00;98.62;99918.91;5031326;28;20133;-76
2022/04/26 03:51:53;;;;;;;7.88;4.03;;;;;;;5.01;98.80;99919.72;5016351;28;20068;-76
2022/04/26 03:57:32;;;;;;;5.88;3.42;;;;;;;5.03;98.46;99931.16;5013525;28;19983;-75
2022/04/26 03:59:58;;;;;;;5.82;4.05;;;;;;;5.08;98.43;99934.75;5013704;28;20048;-76
2022/04/26 04:02:23;;;;;;;6.20;4.00;;;;;;;5.12;98.05;99938.56;5013907;28;20039;-75
2022/04/26 04:04:49;;;;;;;6.05;3.85;;;;;;;5.14;98.50;99928.25;5044272;28;20041;-76
2022/04/26 04:07:15;;;;;;;7.05;3.35;;;;;;;5.21;98.28;99924.50;5033571;28;20068;-76
2022/04/26 04:09:40;;;;;;;5.13;3.50;;;;;;;5.23;98.33;99927.75;5012257;28;20049;-76
2022/04/26 04:12:07;;;;;;;6.38;3.72;;;;;;;5.23;98.45;99928.56;5033772;28;20167;-76
2022/04/26 04:14:33;;;;;;;8.68;3.67;;;;;;;5.29;98.46;99927.50;5033850;28;20051;-75
2022/04/26 04:16:58;;;;;;;6.63;3.30;;;;;;;5.31;98.50;99925.34;5032412;28;20045;-76
2022/04/26 04:19:25;;;;;;;5.82;3.58;;;;;;;5.34;98.53;99924.81;5032125;28;20132;-76
2022/04/26 04:21:52;;;;;;;5.05;3.33;;;;;;;5.38;98.34;99925.94;4999388;28;20048;-75
2022/04/26 04:24:18;;;;;;;4.68;3.55;;;;;;;5.42;98.64;99916.16;5032223;28;20033;-75
2022/04/26 04:26:44;;;;;;;6.10;3.45;;;;;;;5.47;98.78;99918.06;5032926;28;20056;-76
2022/04/26 04:29:10;;;;;;;8.77;3.85;;;;;;;5.52;98.43;99920.00;5031494;28;20053;-76
2022/04/26 04:31:37;;;;;;;5.68;3.47;;;;;;;5.52;98.52;99920.00;5031679;28;20507;-76
2022/04/26 04:34:02;;;;;;;4.68;3.25;;;;;;;5.56;98.28;99923.84;5015542;28;20041;-76
2022/04/26 04:36:28;;;;;;;5.07;3.22;;;;;;;5.61;98.04;99921.13;5033045;28;20092;-76
2022/04/26 04:38:55;;;;;;;3.88;2.75;;;;;;;5.67;98.47;99922.78;5048493;28;20586;-76
2022/04/26 04:41:21;;;;;;;5.05;3.17;;;;;;;5.74;98.35;99920.66;5053034;28;20538;-76
2022/04/26 04:43:46;;;;;;;4.55;3.28;;;;;;;5.78;98.43;99913.59;5053014;28;20082;-75
2022/04/26 04:46:12;;;;;;;5.25;3.08;;;;;;;5.77;98.34;99911.13;5036347;28;20076;-75
2022/04/26 04:48:38;;;;;;;5.03;2.95;;;;;;;5.80;97.99;99916.03;5031967;28;20045;-75
2022/04/26 04:51:03;;;;;;;4.10;3.00;;;;;;;5.79;97.72;99909.78;5042846;28;20083;-76
2022/04/26 04:53:29;;;;;;;4.07;3.20;;;;;;;6.11;97.46;99916.97;5050471;28;20033;-76
2022/04/26 04:55:54;;;;;;;5.38;2.92;;;;;;;7.08;96.90;99915.06;5052664;28;20044;-76
2022/04/26 04:58:20;;;;;;;5.22;2.95;;;;;;;7.92;97.46;99911.50;5038417;28;20116;-76
2022/04/26 05:00:46;;;;;;;5.65;3.45;;;;;;;8.21;97.20;99908.06;5032666;28;20072;-76
2022/04/26 05:03:11;;;;;;;5.25;3.85;;;;;;;8.12;95.79;99908.63;5032735;28;20045;-76
2022/04/26 05:05:37;;;;;;;6.00;4.25;;;;;;;8.57;94.06;99909.44;5031299;28;20041;-76
2022/04/26 05:08:03;;;;;;;5.55;3.83;;;;;;;9.23;92.19;99903.38;5032937;28;20045;-76
2022/04/26 05:10:32;;;;;;;5.10;3.25;;;;;;;9.42;89.72;99897.13;5032503;28;20072;-77
2022/04/26 05:12:58;;;;;;;7.10;3.60;;;;;;;10.10;87.09;99902.28;5047821;28;20090;-79
2022/04/26 05:15:25;;;;;;;4.25;3.05;;;;;;;10.90;84.45;99904.88;5032414;28;20667;-79
2022/04/26 05:17:51;;;;;;;3.70;2.80;;;;;;;11.62;80.77;99899.66;5032424;28;20064;-79
2022/04/26 05:20:17;;;;;;;6.05;3.03;;;;;;;11.66;75.72;99891.63;5032261;28;20500;-79
2022/04/26 05:25:27;;;;;;;3.05;2.75;;;;;;;12.00;73.73;99893.97;5031136;28;20072;-79
2022/04/26 05:27:53;;;;;;;5.18;2.92;;;;;;;12.31;73.56;99886.63;5046716;28;20056;-79
2022/04/26 05:30:18;;;;;;;5.47;3.50;;;;;;;12.31;71.52;99892.13;5052011;28;20052;-79
2022/04/26 05:32:44;;;;;;;4.55;3.13;;;;;;;11.99;71.17;99904.16;5043584;28;20500;-78
2022/04/26 05:35:10;;;;;;;4.40;2.88;;;;;;;11.51;71.45;99892.75;5032163;28;20048;-79
2022/04/26 05:37:36;;;;;;;4.93;2.92;;;;;;;11.09;72.15;99900.13;5064481;28;20033;-79
2022/04/26 05:40:03;;;;;;;3.83;2.83;;;;;;;10.77;73.19;99906.50;5046985;28;20040;-79
2022/04/26 05:42:30;;;;;;;4.10;2.53;;;;;;;11.20;73.49;99902.69;5039406;28;20047;-80
2022/04/26 05:44:58;;;;;;;3.00;2.38;;;;;;;11.43;71.64;99902.50;5032241;28;20041;-76
2022/04/26 05:47:24;;;;;;;3.17;2.47;;;;;;;11.51;70.64;99902.94;5027869;28;20041;-82
2022/04/26 05:49:49;;;;;;;5.38;3.00;;;;;;;12.00;70.67;99899.47;5064494;28;20424;-79
2022/04/26 05:52:16;;;;;;;5.15;3.17;;;;;;;12.63;68.89;99901.28;5040470;28;20086;-80
2022/04/26 05:54:41;;;;;;;3.38;2.88;;;;;;;13.21;67.70;99906.72;5057332;28;20044;-79
2022/04/26 05:57:07;;;;;;;4.40;2.92;;;;;;;13.75;65.13;99903.84;5030653;28;20042;-83
2022/04/26 05:59:34;;;;;;;4.28;2.95;;;;;;;14.26;62.72;99903.13;5029613;28;20141;-81
2022/04/26 06:02:00;;;;;;;3.72;3.00;;;;;;;14.93;61.14;99913.69;5050713;28;20040;-81
2022/04/26 06:04:26;;;;;;;4.65;3.35;;;;;;;15.60;59.11;99903.88;5041203;28;20033;-80
2022/04/26 06:06:52;;;;;;;3.55;3.03;;;;;;;16.29;57.02;99909.00;5042517;28;20041;-81
2022/04/26 06:09:17;;;;;;;2.78;2.55;;;;;;;16.90;55.06;99908.50;5025540;28;20137;-75
2022/04/26 06:11:43;;;;;;;3.53;2.53;;;;;;;17.41;53.61;99907.13;5011047;28;20037;-76
2022/04/26 06:14:09;;;;;;;4.35;2.92;;;;;;;17.93;52.09;99912.03;5020412;28;20041;-76
2022/04/26 06:16:34;;;;;;;3.97;2.90;;;;;;;18.30;50.61;99902.50;5027811;28;20100;-77
2022/04/26 06:19:00;;;;;;;3.22;2.60;;;;;;;18.38;49.32;99909.06;5023292;28;20038;-76
2022/04/26 06:21:26;;;;;;;5.03;2.95;;;;;;;18.44;49.55;99906.88;5027326;28;20048;-80
2022/04/26 06:23:52;;;;;;;3.63;2.78;;;;;;;18.57;48.04;99908.41;5032116;28;20104;-76
2022/04/26 06:26:17;;;;;;;3.35;2.45;;;;;;;18.33;48.03;99904.56;5023848;28;20064;-76
2022/04/26 06:28:43;;;;;;;3.83;3.08;;;;;;;17.65;48.96;99900.78;5029592;28;20054;-76
2022/04/26 06:31:09;;;;;;;3.05;2.72;;;;;;;16.86;50.72;99905.63;5030895;28;20110;-76
2022/04/26 06:33:34;;;;;;;4.15;2.67;;;;;;;16.26;50.76;99904.94;5062628;28;20048;-77
2022/04/26 06:36:00;;;;;;;3.13;2.75;;;;;;;16.02;51.85;99906.75;5029670;28;20136;-76
2022/04/26 06:38:26;;;;;;;3.80;2.75;;;;;;;16.29;52.42;99907.03;5033907;28;20048;-76
2022/04/26 06:40:52;;;;;;;3.72;2.70;;;;;;;16.57;51.48;99915.63;5050072;28;20048;-78
2022/04/26 06:43:18;;;;;;;4.30;2.33;;;;;;;17.16;50.38;99911.81;5051459;28;20051;-78
2022/04/26 06:45:46;;;;;;;2.95;2.63;;;;;;;17.78;48.25;99916.31;5052061;28;20051;-78
2022/04/26 06:48:13;;;;;;;3.13;2.60;;;;;;;17.73;48.33;99911.81;5033949;28;20565;-78
2022/04/26 06:50:39;;;;;;;5.25;2.90;;;;;;;17.74;48.22;99915.41;5048481;28;20045;-77
2022/04/26 06:53:05;;;;;;;3.53;2.15;;;;;;;18.07;47.77;99918.03;5029639;28;20037;-77
2022/04/26 06:55:31;;;;;;;3.65;2.60;;;;;;;18.82;46.97;99917.53;5032314;28;20137;-78
2022/04/26 06:57:57;;;;;;;3.33;2.50;;;;;;;19.43;44.76;99923.53;5031454;28;20039;-77
2022/04/26 07:00:23;;;;;;;4.10;2.50;;;;;;;19.71;43.87;99933.81;5027033;28;20044;-76
2022/04/26 07:02:48;;;;;;;3.22;2.53;;;;;;;19.91;43.65;99918.81;5029448;28;20483;-77
2022/04/26 07:05:15;;;;;;;4.25;2.58;;;;;;;20.11;42.75;99920.47;5047321;28;20129;-77
2022/04/26 07:07:40;;;;;;;2.80;2.45;;;;;;;20.46;42.46;99925.25;5050809;28;20049;-79
2022/04/26 07:10:07;;;;;;;4.20;2.22;;;;;;;20.95;40.69;99925.50;5049621;28;20045;-78
2022/04/26 07:12:33;;;;;;;2.30;2.10;;;;;;;20.95;39.97;99919.91;5050444;28;20450;-77
2022/04/26 07:14:59;;;;;;;3.45;2.45;;;;;;;21.25;39.53;99922.13;5050981;28;20037;-77
2022/04/26 07:17:25;;;;;;;4.13;2.42;;;;;;;21.19;39.54;99923.56;5053882;28;20059;-78
2022/04/26 07:19:50;;;;;;;3.10;2.55;;;;;;;21.09;39.63;99936.13;5037563;28;20095;-77
2022/04/26 07:22:16;;;;;;;2.28;2.08;;;;;;;21.06;39.34;99931.28;5034842;28;20073;-77
2022/04/26 07:24:43;;;;;;;3.38;2.35;;;;;;;20.56;40.21;99938.63;5034692;28;20037;-79
2022/04/26 07:27:10;;;;;;;;;;;;;;;19.87;41.51;99942.97;5036312;28;20090;-79
2022/04/26 07:29:35;;;;;;;3.17;2.63;;;;;;;19.16;42.04;99941.91;5058459;28;19920;-78
2022/04/26 07:32:02;;;;;;;3.83;2.85;;;;;;;18.44;44.18;99942.97;5035342;28;20037;-80
2022/04/26 07:34:27;;;;;;;4.10;2.78;;;;;;;18.78;43.43;99944.41;5050371;28;20076;-80
2022/04/26 07:36:59;;;;;;;5.13;2.80;;;;;;;19.20;42.89;99942.00;5054787;28;20118;-80
2022/04/26 07:39:25;;;;;;;2.90;2.60;;;;;;;19.66;41.75;99945.25;5037397;28;20048;-80
2022/04/26 07:41:51;;;;;;;4.20;2.80;;;;;;;20.14;41.87;99942.06;5024299;28;20052;-80
2022/04/26 07:44:17;;;;;;;3.33;2.92;;;;;;;20.59;39.87;99951.03;5037379;28;20398;-80
2022/04/26 07:46:44;;;;;;;3.42;2.97;;;;;;;21.25;39.22;99953.63;5044185;28;20050;-80
2022/04/26 07:49:11;;;;;;;5.45;3.03;;;;;;;21.80;37.80;99950.59;5033161;28;20488;-80
2022/04/26 07:51:37;;;;;;;3.55;3.22;;;;;;;22.23;37.56;99964.09;5041370;28;20045;-80
2022/04/26 07:54:03;;;;;;;6.35;2.90;;;;;;;22.46;36.49;99963.22;5053926;28;20513;-79
2022/04/26 07:56:28;;;;;;;4.07;3.00;;;;;;;22.69;35.62;99963.94;5052797;28;20048;-77
2022/04/26 07:58:57;;;;;;;3.33;2.80;;;;;;;22.86;35.90;99977.38;5044027;28;20569;-76
2022/04/26 08:01:23;;;;;;;4.30;2.95;;;;;;;23.10;35.40;99975.28;5033786;28;20037;-77
2022/04/26 08:03:48;;;;;;;3.67;3.38;;;;;;;22.62;36.06;99972.25;5032515;28;20103;-78
2022/04/26 08:06:14;;;;;;;3.03;2.75;;;;;;;22.09;36.40;99983.44;5033753;28;20515;-77
2022/04/26 08:08:39;;;;;;;4.47;2.90;;;;;;;22.30;35.31;99988.56;5047144;28;20469;-78
2022/04/26 08:11:05;;;;;;;3.72;2.70;;;;;;;22.02;35.74;99983.28;5052636;28;20037;-77
2022/04/26 08:13:31;;;;;;;4.75;2.63;;;;;;;21.73;36.17;99984.00;5050016;28;20033;-78
2022/04/26 08:15:56;;;;;;;3.30;2.80;;;;;;;21.49;36.26;99985.16;5039291;28;20084;-78
2022/04/26 08:18:23;;;;;;;4.05;3.05;;;;;;;21.31;36.10;99991.19;5033800;28;20140;-77
2022/04/26 08:20:49;;;;;;;2.88;2.60;;;;;;;20.51;37.82;99986.31;5033763;28;20041;-79
2022/04/26 08:23:14;;;;;;;4.32;2.90;;;;;;;20.34;37.54;99993.06;5033823;28;20044;-81
2022/04/26 08:28:28;;;;;;;3.65;2.95;;;;;;;19.84;38.61;100002.97;5037360;28;20122;-80
2022/04/26 08:30:55;;;;;;;3.47;2.63;;;;;;;20.01;38.31;100001.81;5034389;28;20128;-83
2022/04/26 08:33:28;;;;;;;5.28;2.60;;;;;;;19.91;38.43;99998.75;5036607;28;20045;-80
2022/04/26 08:35:54;;;;;;;5.57;3.08;;;;;;;19.08;39.52;100001.28;5019306;28;20045;-81
2022/04/26 08:38:20;;;;;;;4.85;3.67;;;;;;;18.50;41.05;99999.91;5037329;28;20045;-81
2022/04/26 08:40:46;;;;;;;5.72;3.00;;;;;;;18.59;40.63;99990.28;5047580;28;20389;-81
2022/04/26 08:43:12;;;;;;;4.05;2.83;;;;;;;18.45;40.64;99995.41;5057488;28;20119;-81
2022/04/26 08:45:38;;;;;;;4.38;3.00;;;;;;;17.92;41.16;99993.69;5055731;28;20045;-80
2022/04/26 08:51:05;;;;;;;5.07;2.63;;;;;;;18.50;40.49;100000.72;5055740;28;20052;-80
2022/04/26 08:53:35;;;;;;;4.00;2.47;;;;;;;18.20;40.55;99997.38;5055399;28;20044;-79
2022/04/26 08:56:03;;;;;;;5.43;3.05;;;;;;;18.64;40.34;100008.72;5054795;28;20045;-79
2022/04/26 08:58:34;;;;;;;4.95;2.85;;;;;;;18.58;39.47;99998.97;5049176;28;20499;-80
2022/04/26 09:01:19;;;;;;;2.95;2.45;;;;;;;18.91;38.24;99999.59;5022954;28;20459;-79
2022/04/26 09:03:55;;;;;;;4.10;2.40;;;;;;;19.26;37.28;100010.13;5030658;28;20128;-79
2022/04/26 09:06:40;;;;;;;4.28;2.17;;;;;;;19.18;37.01;99994.41;5015129;28;20038;-79
2022/04/26 09:09:11;;;;;;;3.17;2.80;;;;;;;18.61;37.52;100007.41;5013370;28;20034;-79
2022/04/26 09:11:38;;;;;;;2.53;2.30;;;;;;;18.52;37.87;100003.13;5012924;28;20044;-79
2022/04/26 09:14:09;;;;;;;3.50;2.35;;;;;;;18.07;38.01;100018.00;5014598;28;20092;-80
2022/04/26 09:16:35;;;;;;;3.15;2.45;;;;;;;17.13;39.11;100024.19;5014284;28;20061;-79
2022/04/26 09:19:06;;;;;;;2.90;2.15;;;;;;;16.58;40.01;100039.09;5015440;28;20050;-79
2022/04/26 09:21:34;;;;;;;4.82;2.63;;;;;;;16.05;40.74;100025.06;5014763;28;20049;-79
2022/04/26 09:24:07;;;;;;;3.65;2.60;;;;;;;15.26;41.99;100023.66;5014625;28;20104;-79
2022/04/26 09:26:40;;;;;;;5.80;2.40;;;;;;;14.52;43.77;100029.31;5050393;28;20046;-79
2022/04/26 09:29:07;;;;;;;5.18;2.75;;;;;;;13.83;45.16;100038.16;5015362;28;20042;-79
2022/04/26 09:31:35;;;;;;;4.78;2.47;;;;;;;13.34;45.44;100031.72;5014077;28;20053;-81
2022/04/26 09:34:06;;;;;;;2.88;2.00;;;;;;;12.82;45.87;100024.97;5014407;28;20065;-79
2022/04/26 09:36:42;;;;;;;3.30;2.42;;;;;;;12.29;46.36;100040.19;5014066;28;20041;-78
2022/04/26 09:39:09;;;;;;;2.38;2.00;;;;;;;12.01;46.35;100044.88;5013998;28;20041;-78
2022/04/26 09:41:35;;;;;;;2.42;2.00;;;;;;;11.85;47.09;100053.72;5012087;28;20049;-80
2022/04/26 09:44:05;;;;;;;5.32;2.00;;;;;;;11.61;46.31;100057.41;5012300;28;20404;-78
2022/04/26 09:46:53;;;;;;;4.57;2.20;;;;;;;11.44;47.83;100049.75;5024470;28;20451;-78
2022/04/26 09:49:23;;;;;;;9.73;2.30;;;;;;;11.36;48.13;100058.69;5047478;28;20053;-79
2022/04/26 09:51:54;;;;;;;2.63;1.75;;;;;;;11.24;48.70;100063.00;5001682;28;20124;-80
2022/04/26 09:54:20;;;;;;;3.45;1.90;;;;;;;11.18;49.44;100065.03;5034173;28;20067;-80
2022/04/26 09:56:47;;;;;;;3.13;1.20;;;;;;;11.27;49.13;100057.72;5033841;28;20037;-80
2022/04/26 09:59:24;;;;;;;2.40;1.77;;;;;;;11.16;49.61;100070.81;5032458;28;20044;-80
2022/04/26 10:01:50;;;;;;;3.15;1.50;;;;;;;11.23;49.39;100086.91;5030544;28;20049;-80
2022/04/26 10:04:17;;;;;;;5.30;2.08;;;;;;;11.35;49.17;100076.28;5041762;28;20121;-80
2022/04/26 10:06:44;;;;;;;4.55;2.20;;;;;;;11.47;48.58;100081.31;5014315;28;20068;-80
2022/04/26 10:09:10;;;;;;;3.42;1.90;;;;;;;11.53;48.01;100077.34;5013116;28;20045;-80
2022/04/26 10:11:36;;;;;;;2.97;2.40;;;;;;;11.52;47.27;100092.22;5012744;28;20535;-81
2022/04/26 10:14:04;;;;;;;3.63;2.15;;;;;;;11.48;48.07;100091.19;5012933;28;20050;-80
2022/04/26 10:16:30;;;;;;;4.28;1.75;;;;;;;11.44;48.60;100085.44;5012988;28;20129;-80
2022/04/26 10:19:06;;;;;;;2.97;2.45;;;;;;;11.60;47.93;100088.75;4981028;28;20129;-81
2022/04/26 10:21:35;;;;;;;5.38;2.53;;;;;;;11.67;47.57;100091.13;5014648;28;20534;-80
2022/04/26 10:24:04;;;;;;;5.60;2.88;;;;;;;11.80;47.20;100093.09;5013971;28;20045;-81
2022/04/26 10:26:30;;;;;;;3.80;2.08;;;;;;;11.86;46.64;100091.09;5030258;28;20038;-80
2022/04/26 10:29:02;;;;;;;2.25;1.70;;;;;;;11.82;45.47;100101.09;5029697;28;20838;-80
2022/04/26 10:31:38;;;;;;;5.68;2.22;;;;;;;11.55;46.24;100097.09;5015089;28;20044;-80
2022/04/26 10:34:31;;;;;;;4.35;2.30;;;;;;;11.48;46.22;100096.69;5010374;28;20037;-81
2022/04/26 10:37:06;;;;;;;4.70;2.05;;;;;;;11.31;47.09;100102.72;5011416;28;20042;-79
2022/04/26 10:39:33;;;;;;;4.28;2.40;;;;;;;11.01;48.15;100104.00;5014341;28;20096;-79
2022/04/26 10:42:00;;;;;;;6.55;2.55;;;;;;;10.87;49.20;100112.16;5030117;28;20050;-79
2022/04/26 10:44:38;;;;;;;2.60;1.80;;;;;;;10.83;50.17;100113.03;5034496;28;20064;-79
2022/04/26 10:47:03;;;;;;;2.77;2.17;;;;;;;10.75;50.37;100114.50;5017293;28;20061;-79
2022/04/26 10:49:32;;;;;;;8.20;2.20;;;;;;;10.65;51.90;100122.06;5013939;28;20404;-79
2022/04/26 10:52:14;;;;;;;5.38;2.00;;;;;;;10.67;52.94;100125.34;5012971;28;20042;-80
2022/04/26 10:54:46;;;;;;;5.20;2.28;;;;;;;10.73;52.42;100119.47;5029420;28;20519;-79
2022/04/26 10:57:16;;;;;;;2.50;1.85;;;;;;;10.72;53.74;100112.34;5014134;28;20416;-79
2022/04/26 10:59:47;;;;;;;2.38;1.55;;;;;;;10.74;53.38;100121.09;5014790;28;20041;-80
2022/04/26 11:02:17;;;;;;;3.38;2.33;;;;;;;10.78;53.74;100135.09;4997279;28;20037;-80
2022/04/26 11:04:43;;;;;;;3.85;2.20;;;;;;;10.65;53.79;100133.06;5030125;28;20045;-80
2022/04/26 11:07:16;;;;;;;4.88;2.15;;;;;;;10.51;54.48;100136.50;4997817;28;20136;-79
2022/04/26 11:09:53;;;;;;;4.03;1.98;;;;;;;10.41;54.54;100144.88;5014072;28;20044;-79
2022/04/26 11:12:29;;;;;;;2.83;1.63;;;;;;;10.37;54.81;100148.47;5014363;28;20501;-79
2022/04/26 11:14:57;;;;;;;2.95;2.00;;;;;;;10.40;56.05;100148.69;5014104;28;20046;-80
2022/04/26 11:17:24;;;;;;;2.92;1.77;;;;;;;10.45;55.45;100151.41;5013160;28;20034;-80
2022/04/26 11:19:57;;;;;;;2.47;2.00;;;;;;;10.49;54.79;100152.44;4996791;28;20584;-79
2022/04/26 11:22:25;;;;;;;3.17;1.90;;;;;;;10.56;54.74;100152.88;5012619;28;20046;-80
2022/04/26 11:30:35;;;;;;;2.63;1.70;;;;;;;10.76;54.72;100170.22;5033035;28;20057;-80
2022/04/26 11:33:06;;;;;;;2.78;1.58;;;;;;;10.80;53.99;100168.53;5033135;28;20105;-79
2022/04/26 11:35:34;;;;;;;4.07;2.10;;;;;;;10.81;54.33;100172.91;5030594;28;20072;-79
2022/04/26 11:38:13;;;;;;;1.63;1.23;;;;;;;10.86;54.66;100167.34;5031961;28;20465;-79
2022/04/26 11:40:41;;;;;;;1.98;1.48;;;;;;;10.90;53.98;100175.81;5030850;28;20049;-79
2022/04/26 11:43:08;;;;;;;2.25;1.30;;;;;;;10.74;53.72;100183.41;5032343;28;20451;-79
2022/04/26 11:45:34;;;;;;;1.52;1.30;;;;;;;10.62;54.38;100181.09;5033338;28;20073;-79
2022/04/26 11:48:00;;;;;;;2.25;1.50;;;;;;;10.52;54.68;100181.22;5051860;28;20044;-79
2022/04/26 11:50:27;;;;;;;5.50;1.35;;;;;;;10.46;55.22;100185.94;5052501;28;20044;-79
2022/04/26 11:53:17;;;;;;;1.35;1.20;;;;;;;10.31;54.92;100193.53;5051939;28;20041;-80
2022/04/26 11:55:45;;;;;;;2.63;2.03;;;;;;;10.14;55.19;100194.75;5038231;28;20041;-79
2022/04/26 11:58:22;;;;;;;2.53;1.40;;;;;;;10.01;56.07;100194.59;5031965;28;20041;-79
2022/04/26 12:00:52;;;;;;;3.05;1.83;;;;;;;9.79;56.80;100195.88;5015592;28;20103;-79
2022/04/26 12:03:19;;;;;;;3.67;1.30;;;;;;;9.67;56.45;100209.94;5035721;28;20048;-80
2022/04/26 12:05:45;;;;;;;1.05;0.80;;;;;;;9.58;56.84;100203.44;5035898;28;20037;-81
2022/04/26 12:08:12;;;;;;;1.98;1.48;;;;;;;9.46;57.22;100210.38;5056740;28;20033;-81
2022/04/26 12:10:38;;;;;;;2.13;1.40;;;;;;;9.41;56.76;100213.16;5018752;28;20046;-81
2022/04/26 12:13:07;;;;;;;2.00;1.15;;;;;;;9.39;57.17;100215.38;5018669;28;20095;-81
2022/04/26 12:15:40;;;;;;;1.77;1.15;;;;;;;9.47;57.33;100212.00;5031593;28;20591;-79
2022/04/26 12:18:13;;;;;;;1.83;1.20;;;;;;;9.60;57.94;100216.84;5042215;28;20056;-79
2022/04/26 12:20:55;;;;;;;1.60;1.20;;;;;;;9.78;57.29;100207.94;5056224;28;20419;-80
2022/04/26 12:23:22;;;;;;;2.00;1.10;;;;;;;9.96;56.91;100218.22;5018193;28;20045;-80
2022/04/26 12:26:02;;;;;;;3.80;1.42;;;;;;;10.04;56.46;100216.75;5016965;28;20029;-79
2022/04/26 12:28:28;;;;;;;3.38;1.63;;;;;;;10.12;56.34;100220.81;5036217;28;20064;-81
2022/04/26 12:30:54;;;;;;;3.15;1.20;;;;;;;10.13;56.79;100223.28;5019974;28;20128;-80
2022/04/26 12:33:26;;;;;;;2.38;1.35;;;;;;;10.09;56.44;100226.88;5036630;28;20105;-81
2022/04/26 12:36:04;;;;;;;3.60;1.30;;;;;;;10.01;56.90;100224.75;5026697;28;20045;-80
2022/04/26 12:38:30;;;;;;;1.63;1.30;;;;;;;9.94;57.44;100234.13;5031107;28;20487;-82
2022/04/26 12:41:05;;;;;;;2.20;1.77;;;;;;;9.92;57.62;100246.50;5017668;28;20456;-81
2022/04/26 12:43:32;;;;;;;2.38;1.58;;;;;;;9.91;57.22;100245.66;5051453;28;20037;-81
2022/04/26 12:46:02;;;;;;;1.45;1.30;;;;;;;9.97;57.56;100246.44;5035023;28;20048;-80
2022/04/26 12:51:18;;;;;;;3.50;1.55;;;;;;;10.08;57.88;100245.25;5026278;28;20037;-79
2022/04/26 12:53:45;;;;;;;4.75;1.55;;;;;;;10.13;57.94;100255.34;5024123;28;20061;-81
2022/04/26 12:56:12;;;;;;;2.50;1.63;;;;;;;10.27;57.97;100256.38;5034345;28;20144;-77
2022/04/26 12:58:39;;;;;;;1.70;1.50;;;;;;;10.37;56.88;100250.75;5015434;28;20040;-77
2022/04/26 13:01:06;;;;;;;1.35;1.05;;;;;;;10.36;57.30;100254.63;5028046;28;20039;-85
2022/04/26 13:03:33;;;;;;;3.88;1.63;;;;;;;10.39;56.91;100259.50;5000121;28;20034;-79
2022/04/26 13:06:09;;;;;;;1.50;1.40;;;;;;;10.40;57.12;100257.59;5037490;28;20052;-82
2022/04/26 13:08:35;;;;;;;1.50;1.23;;;;;;;10.34;56.61;100254.09;5063772;28;20041;-77
2022/04/26 13:11:01;;;;;;;3.90;1.23;;;;;;;10.22;55.66;100268.16;5022185;28;20049;-79
2022/04/26 13:13:29;;;;;;;3.80;1.20;;;;;;;10.19;55.92;100265.16;5027617;28;20386;-80
2022/04/26 13:15:55;;;;;;;1.30;1.00;;;;;;;10.14;55.51;100266.03;5030453;28;20412;-76
2022/04/26 13:18:20;;;;;;;3.78;1.67;;;;;;;10.02;54.40;100270.25;5055722;28;20515;-77
2022/04/26 13:20:46;;;;;;;3.15;1.58;;;;;;;9.91;54.34;100289.53;5026248;28;20092;-77
2022/04/26 13:23:13;;;;;;;2.42;1.10;;;;;;;9.77;54.14;100285.78;5028041;28;20037;-77
2022/04/26 13:25:39;;;;;;;2.05;1.33;;;;;;;9.67;53.79;100289.38;5040812;28;20045;-85
2022/04/26 13:28:05;;;;;;;2.95;0.90;;;;;;;9.59;53.75;100289.19;5050854;28;20034;-81
2022/04/26 13:30:31;;;;;;;6.45;1.70;;;;;;;9.44;53.29;100297.47;5032606;28;20053;-81
2022/04/26 13:32:57;;;;;;;1.70;0.98;;;;;;;9.28;53.55;100292.06;5035564;28;20132;-81
2022/04/26 13:35:24;;;;;;;12.10;1.23;;;;;;;9.20;53.74;100311.84;5035307;28;20095;-80
2022/04/26 13:37:58;;;;;;;5.57;1.00;;;;;;;9.21;54.18;100304.44;5033037;28;20137;-78
2022/04/26 13:40:24;;;;;;;1.17;1.08;;;;;;;9.18;53.55;100314.00;5029047;28;20041;-77
2022/04/26 13:42:51;;;;;;;2.08;1.33;;;;;;;9.19;53.55;100304.69;5032254;28;20042;-78
2022/04/26 13:45:17;;;;;;;1.73;0.90;;;;;;;9.21;52.95;100305.25;5033372;28;20045;-78
2022/04/26 13:47:44;;;;;;;4.57;0.88;;;;;;;9.23;52.80;100310.47;5034944;28;20508;-80
2022/04/26 13:50:11;;;;;;;3.95;1.40;;;;;;;9.22;53.15;100312.38;5032713;28;20427;-77
2022/04/26 13:52:37;;;;;;;1.88;0.90;;;;;;;9.19;52.83;100310.19;5034563;28;20036;-75
2022/04/26 13:55:04;;;;;;;2.58;1.10;;;;;;;9.17;52.59;100306.91;5050301;28;20033;-77
2022/04/26 13:57:30;;;;;;;2.40;0.82;;;;;;;9.16;52.06;100304.44;5035149;28;20041;-77
2022/04/26 13:59:56;;;;;;;2.28;0.77;;;;;;;9.13;51.33;100308.56;5034977;28;20034;-77
2022/04/26 14:02:21;;;;;;;0.70;0.70;;;;;;;9.17;51.77;100315.13;5026639;28;20069;-81
2022/04/26 14:04:50;;;;;;;0.50;0.50;;;;;;;9.19;51.36;100307.44;5015101;28;20069;-83
2022/04/26 14:07:15;;;;;;;0.73;0.60;;;;;;;9.22;51.63;100317.03;5018146;28;20042;-82
2022/04/26 14:09:41;;;;;;;1.42;1.10;;;;;;;9.22;51.53;100320.59;5056998;28;20037;-81
2022/04/26 14:12:08;;;;;;;0.70;0.70;;;;;;;9.25;50.42;100320.03;5052854;28;20139;-81
2022/04/26 14:22:50;;;;;;;2.03;0.80;;;;;;;9.07;50.94;100342.53;5017628;28;20072;-83
2022/04/26 14:25:15;;;;;;;1.50;0.80;;;;;;;9.05;50.64;100334.59;5016480;28;20038;-83
2022/04/26 14:27:43;;;;;;;0.50;0.50;;;;;;;8.93;51.48;100336.81;5015217;28;20065;-83
2022/04/26 14:30:11;;;;;;;0.63;0.63;;;;;;;8.83;51.82;100336.00;4999001;28;20064;-82
2022/04/26 14:32:37;;;;;;;0.90;0.70;;;;;;;8.78;51.92;100347.78;4999480;28;20060;-83
2022/04/26 14:35:03;;;;;;;1.92;1.13;;;;;;;8.70;51.95;100343.72;5027446;28;20229;-82
2022/04/26 14:37:29;;;;;;;1.67;1.38;;;;;;;8.69;52.12;100350.28;5018609;28;20052;-82
2022/04/26 14:39:55;;;;;;;1.70;1.33;;;;;;;8.73;52.38;100353.28;5034866;28;20045;-82
2022/04/26 14:42:23;;;;;;;1.38;0.95;;;;;;;8.73;53.09;100350.56;5052584;28;20041;-82
2022/04/26 14:44:49;;;;;;;0.82;0.80;;;;;;;8.65;53.49;100351.91;5035665;28;20045;-82
2022/04/26 14:47:15;;;;;;;2.85;1.25;;;;;;;8.58;54.24;100365.06;5028854;28;20045;-82
2022/04/26 14:49:41;;;;;;;7.13;1.30;;;;;;;8.59;54.58;100380.38;5034517;28;20041;-82
2022/04/26 14:52:07;;;;;;;2.47;1.15;;;;;;;8.48;55.09;100373.25;5033282;28;20041;-81
2022/04/26 14:54:35;;;;;;;6.40;2.40;;;;;;;8.36;56.17;100378.19;5035517;28;20037;-82
2022/04/26 14:57:02;;;;;;;6.70;2.70;;;;;;;8.30;57.08;100374.59;5034852;28;20061;-85
2022/04/26 14:59:28;;;;;;;4.60;1.58;;;;;;;8.19;57.66;100381.16;5018901;28;20045;-86
2022/04/26 15:01:54;;;;;;;0.90;0.90;;;;;;;8.08;56.83;100383.03;5035225;28;20045;-81
2022/04/26 15:04:21;;;;;;;1.65;0.85;;;;;;;8.01;57.45;100381.69;5033867;28;20044;-81
2022/04/26 15:06:48;;;;;;;1.58;0.80;;;;;;;7.99;56.80;100392.06;5036271;28;20044;-82
2022/04/26 15:17:29;;;;;;;3.08;1.30;;;;;;;7.87;57.68;100416.88;5035621;28;20040;-81
2022/04/26 15:19:54;;;;;;;0.80;0.80;;;;;;;7.89;57.72;100411.16;5035424;28;20041;-81
2022/04/26 15:22:20;;;;;;;1.13;0.80;;;;;;;7.97;58.65;100408.69;5037088;28;20033;-82
2022/04/26 15:24:46;;;;;;;1.15;0.98;;;;;;;8.05;58.14;100412.81;5032926;28;20722;-82
2022/04/26 15:27:14;;;;;;;0.85;0.80;;;;;;;8.06;57.93;100407.09;5032592;28;20037;-83
2022/04/26 15:29:39;;;;;;;2.97;1.10;;;;;;;8.06;57.76;100415.28;5034685;28;20057;-82
2022/04/26 15:32:06;;;;;;;0.70;0.70;;;;;;;8.06;56.83;100411.72;5055567;28;20052;-83
2022/04/26 15:34:31;;;;;;;1.08;0.80;;;;;;;8.00;56.67;100412.81;5017524;28;20412;-82
2022/04/26 15:36:57;;;;;;;2.22;0.80;;;;;;;7.89;55.56;100411.97;5035991;28;20041;-84
2022/04/26 15:39:23;;;;;;;1.10;0.60;;;;;;;7.81;55.60;100421.50;5055513;28;20133;-86
2022/04/26 15:41:48;;;;;;;0.95;0.73;;;;;;;7.78;55.13;100421.19;5040490;28;20041;-86
2022/04/26 15:44:16;;;;;;;4.30;0.98;;;;;;;7.78;55.28;100416.56;5033078;28;20503;-83
2022/04/26 15:46:41;;;;;;;0.70;0.70;;;;;;;7.77;55.28;100422.28;5045177;28;20041;-83